Overview Statistics Trail Chart Weather Telemetry Raw packets
 

This is the latest recevied weather packets stored in our database for station/object N0OQA. If no packets are shown the sender has not sent any weather packets the latest 10 day(s).

<< 19 20 21 22 23 24 25 >>
Time Temp. Humidity Pressure Rain* Wind** Luminosity Snow
1788335263 20.56° C 78% 1015 hPa 0 mm - - -
1788334362 20.56° C 78% 1015.3 hPa 0 mm - - -
1788334062 20.56° C 77% 1015.4 hPa 0 mm - - -
1788331059 20° C 81% 1016 hPa 0 mm - - -
1788330458 20° C 80% 1015.5 hPa 0 mm - - -
1788330155 20° C 79% 1015.4 hPa 0 mm - - -
1788329854 20° C 79% 1015.4 hPa 0 mm - - -
1788327151 20.56° C 77% 1016 hPa 0 mm - - -
1788326250 21.11° C 74% 1016.3 hPa 0 mm - - -
1788325948 21.11° C 74% 1016.3 hPa 0 mm - - -
1788325647 21.11° C 75% 1016 hPa 0 mm - - -
1788324144 21.11° C 74% 1015.9 hPa 0 mm - - -
1788323844 21.11° C 74% 1015.8 hPa 0 mm - - -
1788323246 21.11° C 74% 1015.5 hPa 0 mm - - -
1788322943 21.11° C 75% 1015.5 hPa 0 mm - - -
1788322041 20.56° C 78% 1015.5 hPa 0 mm - - -
1788321440 20.56° C 81% 1015.7 hPa 0 mm - - -
1788320839 20.56° C 80% 1015.8 hPa 0 mm - - -
1788317235 21.11° C 77% 1015.7 hPa 0 mm - - -
1788316934 21.11° C 76% 1015.8 hPa 0 mm - - -
1788314532 22.22° C 73% 1015.6 hPa 0 mm - - -
1788308214 25° C 59% 1015.8 hPa 0 mm - - -
1788303410 27.22° C 51% 1015.9 hPa 0 mm - - -
1788301006 27.78° C 49% 1015.8 hPa 0 mm - - -
1788300406 27.22° C 49% 1015.7 hPa 0 mm - - -

* Rain since midnight (hover to see other rain measurements)
** Current wind speed in m/s (hover to see current wind gust speed)